createdAt,value
2017-12-26T00:02:23.515Z,67.39
2017-12-26T00:05:10.890Z,67.64
2017-12-26T00:07:42.043Z,67.32
2017-12-26T00:10:13.720Z,66.17
2017-12-26T00:12:45.893Z,66.41
2017-12-26T00:15:18.586Z,66.33
2017-12-26T00:17:54.318Z,65.73
2017-12-26T00:20:28.389Z,66.75
2017-12-26T00:22:59.928Z,66.19
2017-12-26T00:25:31.209Z,66.02
2017-12-26T00:28:02.219Z,65.93
2017-12-26T00:30:32.998Z,65.80
2017-12-26T00:33:03.987Z,65.53
2017-12-26T00:35:35.562Z,66.02
2017-12-26T00:38:06.594Z,65.87
2017-12-26T00:40:56.159Z,65.56
2017-12-26T00:43:27.989Z,65.77
2017-12-26T00:46:00.722Z,65.85
2017-12-26T00:48:31.950Z,65.89
2017-12-26T00:51:04.274Z,65.72
2017-12-26T00:53:39.889Z,65.92
2017-12-26T00:56:14.350Z,66.41
2017-12-26T00:58:45.032Z,66.25
2017-12-26T01:01:17.200Z,66.52
2017-12-26T01:03:48.060Z,66.22
2017-12-26T01:06:23.045Z,66.42
2017-12-26T01:08:58.797Z,66.61
2017-12-26T01:11:30.579Z,66.51
2017-12-26T01:14:04.914Z,67.71
2017-12-26T01:16:41.822Z,67.12
2017-12-26T01:19:12.877Z,66.98
2017-12-26T01:21:45.056Z,66.58
2017-12-26T01:24:20.694Z,66.39
2017-12-26T01:26:54.648Z,66.52
2017-12-26T01:29:26.521Z,66.33
2017-12-26T01:31:57.417Z,66.28
2017-12-26T01:34:28.268Z,66.76
2017-12-26T01:36:58.549Z,67.22
2017-12-26T01:39:28.951Z,66.86
2017-12-26T01:41:59.377Z,66.60
2017-12-26T01:44:30.849Z,66.72
2017-12-26T01:47:08.836Z,66.82
2017-12-26T01:49:40.117Z,66.66
2017-12-26T01:52:10.782Z,66.44
2017-12-26T01:54:41.630Z,66.16
2017-12-26T01:57:12.334Z,66.04
2017-12-26T01:59:43.716Z,66.38
2017-12-26T02:02:14.534Z,66.42
2017-12-26T02:04:45.833Z,66.67
2017-12-26T02:07:16.408Z,66.30
2017-12-26T02:09:47.389Z,66.46
2017-12-26T02:12:17.838Z,66.37
2017-12-26T02:14:48.256Z,66.73
2017-12-26T02:17:19.176Z,67.17
2017-12-26T02:19:49.600Z,66.87
2017-12-26T02:22:19.880Z,66.78
2017-12-26T02:24:50.721Z,66.95
2017-12-26T02:27:22.099Z,67.14
2017-12-26T02:29:53.163Z,67.35
2017-12-26T02:32:30.180Z,67.04
2017-12-26T02:35:02.096Z,67.07
2017-12-26T02:37:32.324Z,66.63
2017-12-26T02:40:03.956Z,66.48
2017-12-26T02:42:38.624Z,66.29
2017-12-26T02:45:18.822Z,66.37
2017-12-26T02:47:50.498Z,66.11
2017-12-26T02:50:20.789Z,66.78
2017-12-26T02:52:51.950Z,66.28
2017-12-26T02:55:22.605Z,66.16
2017-12-26T02:57:53.360Z,65.98
2017-12-26T03:00:23.886Z,66.39
2017-12-26T03:02:54.718Z,66.39
2017-12-26T03:05:25.388Z,66.55
2017-12-26T03:07:57.849Z,66.20
2017-12-26T03:10:28.692Z,65.78
2017-12-26T03:13:00.264Z,65.83
2017-12-26T03:15:30.835Z,65.89
2017-12-26T03:18:01.866Z,65.98
2017-12-26T03:20:32.154Z,65.71
2017-12-26T03:23:02.714Z,66.13
2017-12-26T03:25:33.514Z,65.53
2017-12-26T03:28:04.649Z,65.99
2017-12-26T03:30:35.320Z,65.35
2017-12-26T03:33:06.334Z,65.41
2017-12-26T03:35:37.084Z,65.33
2017-12-26T03:38:07.901Z,65.07
2017-12-26T03:40:38.169Z,64.99
2017-12-26T03:43:08.796Z,65.20
2017-12-26T03:45:39.861Z,65.45
2017-12-26T03:48:14.181Z,65.16
2017-12-26T03:50:44.512Z,64.53
2017-12-26T03:53:18.946Z,64.46
2017-12-26T03:55:49.759Z,64.50
2017-12-26T03:58:20.900Z,64.22
2017-12-26T04:00:51.517Z,64.07
2017-12-26T04:03:22.650Z,64.39
2017-12-26T04:08:36.146Z,63.99
2017-12-26T04:11:06.399Z,64.63
2017-12-26T04:13:36.933Z,64.19
2017-12-26T04:16:08.219Z,65.35
2017-12-26T04:18:38.838Z,66.04
2017-12-26T04:21:09.032Z,65.01
2017-12-26T04:23:39.936Z,64.87
2017-12-26T04:26:10.987Z,64.67
2017-12-26T04:31:16.500Z,64.93
2017-12-26T04:33:47.555Z,64.06
2017-12-26T04:36:18.260Z,64.65
2017-12-26T04:38:53.982Z,63.69
2017-12-26T04:41:25.115Z,64.63
2017-12-26T04:43:56.415Z,64.02
2017-12-26T04:46:27.113Z,64.76
2017-12-26T04:48:57.602Z,66.00
2017-12-26T04:51:28.503Z,65.62
2017-12-26T04:53:58.831Z,65.53
2017-12-26T04:56:30.201Z,65.20
2017-12-26T04:59:00.656Z,65.39
2017-12-26T05:01:31.882Z,65.20
2017-12-26T05:04:02.125Z,63.93
2017-12-26T05:06:32.701Z,64.31
2017-12-26T05:09:02.936Z,63.72
2017-12-26T05:11:33.798Z,63.99
2017-12-26T05:14:04.796Z,63.82
2017-12-26T05:16:36.174Z,64.38
2017-12-26T05:19:07.523Z,63.93
2017-12-26T05:21:37.964Z,63.43
2017-12-26T05:24:08.386Z,63.34
2017-12-26T05:26:39.065Z,63.35
2017-12-26T05:29:09.493Z,62.87
2017-12-26T05:31:40.690Z,62.76
2017-12-26T05:34:10.844Z,62.63
2017-12-26T05:36:43.769Z,63.03
2017-12-26T05:39:14.006Z,62.47
2017-12-26T05:41:45.293Z,62.77
2017-12-26T05:44:15.778Z,62.46
2017-12-26T05:46:46.697Z,63.21
2017-12-26T05:49:17.166Z,64.92
2017-12-26T05:51:48.289Z,66.85
2017-12-26T05:54:18.690Z,67.88
2017-12-26T05:56:48.928Z,66.92
2017-12-26T05:59:19.290Z,67.35
2017-12-26T06:01:50.291Z,67.53
2017-12-26T06:04:20.496Z,67.51
2017-12-26T06:06:51.994Z,66.10
2017-12-26T06:09:22.627Z,66.43
2017-12-26T06:11:52.801Z,66.50
2017-12-26T06:14:23.016Z,66.91
2017-12-26T06:16:55.111Z,67.28
2017-12-26T06:19:25.773Z,67.39
2017-12-26T06:21:59.456Z,68.43
2017-12-26T06:24:31.349Z,68.42
2017-12-26T06:27:01.594Z,69.13
2017-12-26T06:29:31.832Z,69.59
2017-12-26T06:32:03.726Z,69.36
2017-12-26T06:34:34.400Z,69.66
2017-12-26T06:37:04.724Z,69.09
2017-12-26T06:39:34.890Z,68.73
2017-12-26T06:42:05.150Z,68.91
2017-12-26T06:44:35.835Z,69.07
2017-12-26T06:47:06.277Z,68.87
2017-12-26T06:49:36.582Z,69.34
2017-12-26T06:52:10.710Z,69.16
2017-12-26T06:54:41.388Z,69.28
2017-12-26T06:57:13.500Z,69.08
2017-12-26T06:59:45.243Z,69.25
2017-12-26T07:02:15.702Z,69.38
2017-12-26T07:04:51.251Z,69.96
2017-12-26T07:07:26.962Z,70.13
2017-12-26T07:09:58.236Z,70.13
2017-12-26T07:12:29.078Z,70.52
2017-12-26T07:14:59.609Z,70.54
2017-12-26T07:17:30.258Z,70.62
2017-12-26T07:20:01.488Z,70.81
2017-12-26T07:22:32.269Z,70.82
2017-12-26T07:25:04.556Z,70.98
2017-12-26T07:27:35.344Z,71.29
2017-12-26T07:30:08.067Z,71.18
2017-12-26T07:32:38.621Z,71.26
2017-12-26T07:35:09.074Z,70.69
2017-12-26T07:37:40.845Z,70.78
2017-12-26T07:40:26.100Z,70.75
2017-12-26T07:43:00.226Z,70.89
2017-12-26T07:45:30.730Z,71.17
2017-12-26T07:48:01.276Z,71.18
2017-12-26T07:50:31.704Z,71.35
2017-12-26T07:53:03.383Z,71.59
2017-12-26T07:55:52.575Z,72.27
2017-12-26T07:58:25.039Z,72.60
2017-12-26T08:01:05.486Z,72.48
2017-12-26T08:03:36.490Z,72.81
2017-12-26T08:06:06.711Z,73.33
2017-12-26T08:08:37.616Z,73.12
2017-12-26T08:11:07.908Z,72.99
2017-12-26T08:13:38.416Z,72.64
2017-12-26T08:16:08.885Z,73.02
2017-12-26T08:18:39.496Z,72.57
2017-12-26T08:21:10.868Z,72.36
2017-12-26T08:23:41.368Z,71.92
2017-12-26T08:26:12.530Z,72.43
2017-12-26T08:28:42.829Z,72.42
2017-12-26T08:31:13.161Z,72.12
2017-12-26T08:33:44.786Z,72.36
2017-12-26T08:36:15.112Z,71.69
2017-12-26T08:38:46.022Z,71.55
2017-12-26T08:41:16.141Z,71.49
2017-12-26T08:43:46.382Z,71.44
2017-12-26T08:46:16.985Z,71.86
2017-12-26T08:48:47.594Z,71.94
2017-12-26T08:51:17.946Z,71.98
2017-12-26T08:53:53.411Z,71.88
2017-12-26T08:56:33.374Z,71.99
2017-12-26T08:59:05.864Z,71.86
2017-12-26T09:01:36.241Z,71.80
2017-12-26T09:04:07.209Z,71.63
2017-12-26T09:06:37.652Z,71.83
2017-12-26T09:09:07.942Z,71.49
2017-12-26T09:11:38.566Z,71.21
2017-12-26T09:14:09.202Z,71.81
2017-12-26T09:16:39.706Z,71.72
2017-12-26T09:19:10.149Z,72.14
2017-12-26T09:21:40.456Z,71.62
2017-12-26T09:24:11.299Z,71.44
2017-12-26T09:26:42.895Z,71.64
2017-12-26T09:29:13.182Z,71.08
2017-12-26T09:31:44.675Z,70.41
2017-12-26T09:34:15.372Z,70.56
2017-12-26T09:36:45.625Z,70.09
2017-12-26T09:39:20.172Z,69.59
2017-12-26T09:41:50.705Z,69.28
2017-12-26T09:44:21.171Z,69.23
2017-12-26T09:46:52.081Z,69.49
2017-12-26T09:49:22.400Z,69.23
2017-12-26T09:51:54.003Z,69.26
2017-12-26T09:54:24.426Z,68.96
2017-12-26T09:56:54.933Z,69.32
2017-12-26T09:59:28.538Z,70.08
2017-12-26T10:02:01.181Z,69.74
2017-12-26T10:04:31.687Z,70.20
2017-12-26T10:07:02.242Z,69.69
2017-12-26T10:09:32.706Z,69.20
2017-12-26T10:12:03.005Z,68.87
2017-12-26T10:14:35.387Z,68.77
2017-12-26T10:17:05.969Z,68.75
2017-12-26T10:19:37.739Z,68.54
2017-12-26T10:22:08.236Z,69.08
2017-12-26T10:24:39.557Z,68.28
2017-12-26T10:27:10.777Z,67.64
2017-12-26T10:29:41.180Z,67.80
2017-12-26T10:32:22.858Z,67.42
2017-12-26T10:34:54.361Z,67.26
2017-12-26T10:37:24.733Z,66.73
2017-12-26T10:39:56.092Z,66.58
2017-12-26T10:42:26.575Z,66.51
2017-12-26T10:44:56.958Z,66.61
2017-12-26T10:47:27.403Z,66.45
2017-12-26T10:49:58.488Z,66.33
2017-12-26T10:52:31.267Z,66.09
2017-12-26T10:55:02.204Z,66.21
2017-12-26T10:57:32.505Z,65.88
2017-12-26T11:00:05.643Z,65.82
2017-12-26T11:02:35.835Z,66.06
2017-12-26T11:05:06.966Z,67.12
2017-12-26T11:07:37.676Z,66.39
2017-12-26T11:10:09.485Z,63.76
2017-12-26T11:12:40.213Z,63.50
2017-12-26T11:15:14.178Z,62.00
2017-12-26T11:17:45.446Z,61.52
2017-12-26T11:20:15.903Z,63.61
2017-12-26T11:22:52.433Z,64.12
2017-12-26T11:25:23.455Z,64.52
2017-12-26T11:27:54.531Z,64.68
2017-12-26T11:30:24.958Z,64.87
2017-12-26T11:32:55.322Z,64.51
2017-12-26T11:35:29.343Z,65.00
2017-12-26T11:38:00.353Z,64.69
2017-12-26T11:40:30.861Z,63.80
2017-12-26T11:43:01.573Z,63.77
2017-12-26T11:45:32.981Z,64.19
2017-12-26T11:48:03.967Z,64.58
2017-12-26T11:50:34.395Z,64.09
2017-12-26T11:53:06.012Z,64.28
2017-12-26T11:55:37.994Z,64.39
2017-12-26T11:58:10.600Z,63.78
2017-12-26T12:00:41.781Z,63.12
2017-12-26T12:03:13.836Z,62.44
2017-12-26T12:05:45.135Z,62.50
2017-12-26T12:08:18.384Z,61.87
2017-12-26T12:10:51.826Z,61.54
2017-12-26T12:13:22.861Z,60.49
2017-12-26T12:15:58.375Z,60.63
2017-12-26T12:18:29.295Z,59.56
2017-12-26T12:21:04.929Z,58.23
2017-12-26T12:23:44.134Z,58.30
2017-12-26T12:26:14.905Z,57.41
2017-12-26T12:28:46.813Z,58.23
2017-12-26T12:31:17.521Z,58.02
2017-12-26T12:33:48.928Z,57.51
2017-12-26T12:36:20.717Z,58.57
2017-12-26T12:38:58.271Z,58.40
2017-12-26T12:41:48.251Z,58.13
2017-12-26T12:44:19.443Z,57.90
2017-12-26T12:46:50.901Z,58.36
2017-12-26T12:49:24.230Z,57.81
2017-12-26T12:51:55.142Z,57.54
2017-12-26T12:54:27.296Z,58.09
2017-12-26T12:56:57.757Z,58.50
2017-12-26T12:59:29.287Z,58.27
2017-12-26T13:02:05.197Z,58.20
2017-12-26T13:04:36.231Z,58.69
2017-12-26T13:07:07.435Z,58.56
2017-12-26T13:09:40.215Z,59.06
2017-12-26T13:12:11.330Z,58.61
2017-12-26T13:14:42.079Z,58.79
2017-12-26T13:17:13.406Z,58.57
2017-12-26T13:19:46.460Z,58.82
2017-12-26T13:22:18.127Z,58.36
2017-12-26T13:24:48.683Z,58.73
2017-12-26T13:27:19.095Z,58.94
2017-12-26T13:29:49.982Z,58.94
2017-12-26T13:32:23.208Z,58.78
2017-12-26T13:34:57.319Z,58.86
2017-12-26T13:37:28.843Z,58.65
2017-12-26T13:39:59.911Z,58.32
2017-12-26T13:42:32.218Z,58.66
2017-12-26T13:45:05.770Z,58.15
2017-12-26T13:47:38.610Z,57.85
2017-12-26T13:50:09.888Z,58.03
2017-12-26T13:52:40.638Z,58.34
2017-12-26T13:55:11.653Z,58.44
2017-12-26T13:57:44.480Z,58.44
2017-12-26T14:00:35.999Z,58.72
2017-12-26T14:03:16.699Z,59.45
2017-12-26T14:05:51.508Z,59.44
2017-12-26T14:08:25.458Z,59.13
2017-12-26T14:10:57.197Z,59.81
2017-12-26T14:13:28.486Z,60.01
2017-12-26T14:15:59.869Z,60.28
2017-12-26T14:18:30.986Z,60.34
2017-12-26T14:21:02.206Z,60.47
2017-12-26T14:23:32.823Z,60.03
2017-12-26T14:26:04.563Z,60.11
2017-12-26T14:28:35.546Z,60.03
2017-12-26T14:31:12.527Z,59.62
2017-12-26T14:33:43.562Z,59.26
2017-12-26T14:36:15.692Z,59.63
2017-12-26T14:38:47.274Z,59.66
2017-12-26T14:41:19.352Z,60.25
2017-12-26T14:43:55.543Z,59.35
2017-12-26T14:46:29.192Z,59.35
2017-12-26T14:49:00.140Z,59.19
2017-12-26T14:51:42.270Z,59.03
2017-12-26T14:54:13.685Z,59.69
2017-12-26T14:56:45.582Z,59.67
2017-12-26T14:59:17.860Z,59.54
2017-12-26T15:01:49.711Z,59.26
2017-12-26T15:04:21.564Z,59.91
2017-12-26T15:06:52.918Z,59.94
2017-12-26T15:09:24.845Z,60.11
2017-12-26T15:11:57.968Z,60.07
2017-12-26T15:14:29.566Z,59.74
2017-12-26T15:17:04.088Z,59.41
2017-12-26T15:19:36.269Z,59.32
2017-12-26T15:22:12.542Z,59.50
2017-12-26T15:24:45.418Z,59.29
2017-12-26T15:27:17.882Z,59.21
2017-12-26T15:29:51.197Z,58.97
2017-12-26T15:32:23.691Z,58.79
2017-12-26T15:34:55.216Z,58.97
2017-12-26T15:37:26.954Z,59.16
2017-12-26T15:39:58.214Z,59.30
2017-12-26T15:42:28.747Z,59.15
2017-12-26T15:45:01.031Z,59.08
2017-12-26T15:47:36.955Z,58.84
2017-12-26T15:50:21.537Z,59.29
2017-12-26T15:52:52.534Z,59.12
2017-12-26T15:55:27.594Z,58.85
2017-12-26T15:57:58.446Z,59.08
2017-12-26T16:00:29.089Z,60.18
2017-12-26T16:02:59.785Z,59.99
2017-12-26T16:05:30.277Z,60.80
2017-12-26T16:08:01.384Z,62.01
2017-12-26T16:10:32.336Z,62.39
2017-12-26T16:13:04.702Z,61.52
2017-12-26T16:15:37.151Z,61.43
2017-12-26T16:18:07.805Z,61.40
2017-12-26T16:20:39.243Z,62.00
2017-12-26T16:23:10.638Z,61.42
2017-12-26T16:25:45.205Z,61.65
2017-12-26T16:28:17.962Z,62.43
2017-12-26T16:30:50.915Z,62.69
2017-12-26T16:33:21.742Z,62.07
2017-12-26T16:35:54.006Z,62.72
2017-12-26T16:38:26.446Z,62.87
2017-12-26T16:41:04.186Z,63.33
2017-12-26T16:43:57.846Z,63.96
2017-12-26T16:46:30.041Z,65.24
2017-12-26T16:49:01.223Z,65.06
2017-12-26T16:51:34.639Z,64.62
2017-12-26T16:54:07.152Z,64.25
2017-12-26T16:56:37.459Z,64.06
2017-12-26T16:59:08.036Z,64.07
2017-12-26T17:01:40.626Z,64.04
2017-12-26T17:04:11.807Z,63.58
2017-12-26T17:06:42.793Z,63.69
2017-12-26T17:09:14.353Z,63.22
2017-12-26T17:11:44.938Z,62.55
2017-12-26T17:14:17.767Z,62.85
2017-12-26T17:16:51.246Z,62.59
2017-12-26T17:19:23.013Z,62.72
2017-12-26T17:21:55.841Z,62.20
2017-12-26T17:24:39.290Z,61.95
2017-12-26T17:27:10.036Z,61.58
2017-12-26T17:32:24.490Z,60.85
2017-12-26T17:35:33.952Z,60.91
2017-12-26T17:38:11.568Z,60.68
2017-12-26T17:40:53.082Z,60.75
2017-12-26T17:43:35.340Z,60.91
2017-12-26T17:46:08.825Z,59.96
2017-12-26T17:48:41.609Z,59.59
2017-12-26T17:51:15.220Z,59.89
2017-12-26T17:53:47.635Z,59.66
2017-12-26T17:56:23.108Z,60.12
2017-12-26T17:58:55.876Z,60.24
2017-12-26T18:01:31.672Z,60.34
2017-12-26T18:04:03.586Z,60.91
2017-12-26T18:06:38.365Z,61.40
2017-12-26T18:09:26.655Z,61.76
2017-12-26T18:12:04.380Z,62.39
2017-12-26T18:14:37.650Z,62.12
2017-12-26T18:17:13.795Z,62.18
2017-12-26T18:19:49.271Z,61.50
2017-12-26T18:22:20.901Z,62.08
2017-12-26T18:24:51.728Z,61.86
2017-12-26T18:27:23.996Z,61.81
2017-12-26T18:29:55.690Z,61.56
2017-12-26T18:32:28.085Z,62.92
2017-12-26T18:35:00.402Z,62.35
2017-12-26T18:37:42.732Z,63.56
2017-12-26T18:40:13.683Z,63.95
2017-12-26T18:42:46.502Z,63.00
2017-12-26T18:45:18.687Z,62.58
2017-12-26T18:47:50.508Z,62.32
2017-12-26T18:50:22.222Z,62.11
2017-12-26T18:52:54.681Z,62.15
2017-12-26T18:55:28.996Z,62.71
2017-12-26T18:58:04.660Z,62.80
2017-12-26T19:00:37.808Z,63.49
2017-12-26T19:03:09.062Z,63.74
2017-12-26T19:05:40.805Z,63.04
2017-12-26T19:08:14.244Z,62.89
2017-12-26T19:10:50.149Z,63.57
2017-12-26T19:13:22.426Z,63.60
2017-12-26T19:16:07.656Z,63.89
2017-12-26T19:18:41.902Z,64.21
2017-12-26T19:21:15.477Z,64.41
2017-12-26T19:23:48.594Z,64.87
2017-12-26T19:26:20.510Z,64.24
2017-12-26T19:28:54.898Z,64.60
2017-12-26T19:31:28.198Z,63.80
2017-12-26T19:34:03.662Z,63.55
2017-12-26T19:36:34.931Z,63.54
2017-12-26T19:39:06.371Z,62.53
2017-12-26T19:41:38.788Z,62.34
2017-12-26T19:44:10.362Z,62.08
2017-12-26T19:46:44.964Z,61.63
2017-12-26T19:49:18.710Z,62.64
2017-12-26T19:51:52.153Z,62.16
2017-12-26T19:54:22.933Z,62.42
2017-12-26T19:56:55.941Z,62.15
2017-12-26T19:59:30.595Z,61.88
2017-12-26T20:02:11.552Z,61.84
2017-12-26T20:04:43.718Z,61.77
2017-12-26T20:07:17.886Z,62.10
2017-12-26T20:09:51.525Z,62.65
2017-12-26T20:12:23.053Z,62.90
2017-12-26T20:14:54.652Z,64.55
2017-12-26T20:17:27.847Z,66.26
2017-12-26T20:20:01.014Z,64.48
2017-12-26T20:22:32.578Z,63.65
2017-12-26T20:25:05.011Z,63.35
2017-12-26T20:27:37.471Z,63.52
2017-12-26T20:30:10.027Z,63.58
2017-12-26T20:32:43.469Z,64.05
2017-12-26T20:35:15.442Z,64.41
2017-12-26T20:37:52.728Z,64.65
2017-12-26T20:40:26.410Z,64.71
2017-12-26T20:42:59.900Z,65.27
2017-12-26T20:48:03.480Z,64.81
2017-12-26T20:50:35.052Z,64.90
2017-12-26T20:53:06.085Z,65.19
2017-12-26T20:55:37.866Z,65.14
2017-12-26T20:58:09.365Z,65.11
2017-12-26T21:00:40.034Z,65.39
2017-12-26T21:03:11.651Z,65.60
2017-12-26T21:05:45.582Z,65.94
2017-12-26T21:11:01.416Z,66.16
2017-12-26T21:13:33.366Z,66.00
2017-12-26T21:16:24.409Z,65.66
2017-12-26T21:19:00.487Z,66.29
2017-12-26T21:21:32.746Z,66.17
2017-12-26T21:24:04.427Z,65.84
2017-12-26T21:26:37.074Z,66.22
2017-12-26T21:29:08.509Z,65.80
2017-12-26T21:31:40.124Z,65.84
2017-12-26T21:34:12.312Z,65.77
2017-12-26T21:36:44.407Z,65.80
2017-12-26T21:39:20.383Z,65.94
2017-12-26T21:42:12.063Z,65.71
2017-12-26T21:44:46.379Z,65.60
2017-12-26T21:47:18.464Z,65.38
2017-12-26T21:49:49.336Z,65.48
2017-12-26T21:52:20.234Z,65.44
2017-12-26T21:54:51.306Z,65.56
2017-12-26T21:57:22.912Z,65.23
2017-12-26T21:59:53.333Z,65.03
2017-12-26T22:02:23.907Z,65.01
2017-12-26T22:04:58.642Z,64.87
2017-12-26T22:07:30.207Z,64.53
2017-12-26T22:10:00.878Z,64.46
2017-12-26T22:12:32.156Z,65.07
2017-12-26T22:15:04.703Z,64.75
2017-12-26T22:17:36.129Z,64.57
2017-12-26T22:20:07.496Z,64.22
2017-12-26T22:22:38.097Z,64.09
2017-12-26T22:25:09.630Z,64.23
2017-12-26T22:27:40.314Z,64.02
2017-12-26T22:30:13.587Z,64.27
2017-12-26T22:32:46.644Z,64.43
2017-12-26T22:35:17.245Z,64.32
2017-12-26T22:37:47.576Z,64.15
2017-12-26T22:40:18.424Z,64.35
2017-12-26T22:42:49.451Z,64.26
2017-12-26T22:45:21.342Z,64.28
2017-12-26T22:47:53.959Z,64.48
2017-12-26T22:50:24.735Z,64.81
2017-12-26T22:52:55.589Z,64.80
2017-12-26T22:55:25.876Z,64.64
2017-12-26T22:57:58.862Z,64.43
2017-12-26T23:00:30.204Z,64.46
2017-12-26T23:03:01.424Z,64.53
2017-12-26T23:05:31.963Z,64.36
2017-12-26T23:08:03.125Z,64.57
2017-12-26T23:10:36.419Z,64.54
2017-12-26T23:13:07.337Z,64.23
2017-12-26T23:17:49.474Z,64.23
2017-12-26T23:20:24.929Z,64.47
2017-12-26T23:23:00.716Z,64.60
2017-12-26T23:27:39.164Z,64.53
2017-12-26T23:31:21.162Z,64.38
2017-12-26T23:35:59.576Z,64.50
2017-12-26T23:40:39.412Z,64.64
2017-12-26T23:45:15.877Z,64.68
2017-12-26T23:49:58.442Z,64.58
2017-12-26T23:54:37.552Z,64.28
2017-12-26T23:59:14.298Z,63.91
